createdAt,value
2018-07-26T00:04:21.609Z,99587.44
2018-07-26T00:09:26.489Z,99590.81
2018-07-26T00:14:31.233Z,99585.36
2018-07-26T00:19:35.992Z,99597.20
2018-07-26T00:24:40.790Z,99590.14
2018-07-26T00:29:45.510Z,99598.39
2018-07-26T00:34:50.287Z,99594.27
2018-07-26T00:39:54.992Z,99597.02
2018-07-26T00:44:59.762Z,99598.95
2018-07-26T00:50:04.544Z,99591.34
2018-07-26T00:55:09.377Z,99595.23
2018-07-26T01:00:14.154Z,99598.55
2018-07-26T01:05:18.927Z,99602.92
2018-07-26T01:10:23.668Z,99605.09
2018-07-26T01:15:28.374Z,99602.92
2018-07-26T01:20:33.099Z,99600.24
2018-07-26T01:25:37.931Z,99597.50
2018-07-26T01:30:42.700Z,99597.52
2018-07-26T01:35:47.517Z,99600.52
2018-07-26T01:40:52.231Z,99608.98
2018-07-26T01:45:56.929Z,99607.63
2018-07-26T01:51:01.660Z,99603.27
2018-07-26T01:56:07.203Z,99601.89
2018-07-26T02:01:12.884Z,99601.08
2018-07-26T02:06:17.652Z,99600.53
2018-07-26T02:11:22.583Z,99606.53
2018-07-26T02:16:27.526Z,99604.34
2018-07-26T02:21:32.684Z,99611.70
2018-07-26T02:26:37.425Z,99607.61
2018-07-26T02:31:42.226Z,99611.70
2018-07-26T02:36:47.030Z,99611.14
2018-07-26T02:41:51.686Z,99622.05
2018-07-26T02:46:56.427Z,99609.22
2018-07-26T02:52:01.066Z,99614.11
2018-07-26T02:57:05.910Z,99626.09
2018-07-26T03:02:10.798Z,99632.38
2018-07-26T03:07:15.522Z,99632.05
2018-07-26T03:12:20.284Z,99638.36
2018-07-26T03:17:25.012Z,99633.65
2018-07-26T03:22:29.771Z,99638.55
2018-07-26T03:27:34.578Z,99635.54
2018-07-26T03:32:39.286Z,99638.91
2018-07-26T03:37:44.026Z,99636.63
2018-07-26T03:42:48.910Z,99645.36
2018-07-26T03:47:53.610Z,99652.14
2018-07-26T03:52:58.391Z,99649.97
2018-07-26T03:58:03.399Z,99652.16
2018-07-26T04:03:08.192Z,99652.75
2018-07-26T04:08:12.964Z,99658.84
2018-07-26T04:13:17.757Z,99663.25
2018-07-26T04:18:22.490Z,99656.70
2018-07-26T04:23:27.281Z,99663.34
2018-07-26T04:28:31.941Z,99666.84
2018-07-26T04:33:36.669Z,99667.45
2018-07-26T04:38:41.444Z,99673.73
2018-07-26T04:43:46.282Z,99669.74
2018-07-26T04:48:51.170Z,99676.14
2018-07-26T04:53:56.124Z,99675.34
2018-07-26T04:59:00.857Z,99683.45
2018-07-26T05:04:05.561Z,99678.92
2018-07-26T05:09:11.964Z,99674.64
2018-07-26T05:14:16.831Z,99669.70
2018-07-26T05:19:21.594Z,99676.77
2018-07-26T05:24:26.356Z,99673.70
2018-07-26T05:29:31.091Z,99671.16
2018-07-26T05:34:35.943Z,99675.81
2018-07-26T05:39:40.812Z,99669.09
2018-07-26T05:44:45.585Z,99667.11
2018-07-26T05:49:50.293Z,99678.04
2018-07-26T05:54:54.991Z,99682.02
2018-07-26T05:59:59.842Z,99682.66
2018-07-26T06:05:04.874Z,99688.27
2018-07-26T06:10:10.266Z,99690.46
2018-07-26T06:15:15.120Z,99694.59
2018-07-26T06:20:19.884Z,99693.61
2018-07-26T06:25:24.608Z,99683.09
2018-07-26T06:30:29.293Z,99683.81
2018-07-26T06:35:34.185Z,99685.28
2018-07-26T06:40:38.920Z,99681.67
2018-07-26T06:45:43.603Z,99691.11
2018-07-26T06:50:48.351Z,99688.86
2018-07-26T06:55:53.053Z,99684.84
2018-07-26T07:00:57.866Z,99695.44
2018-07-26T07:06:02.645Z,99692.88
2018-07-26T07:11:07.354Z,99693.53
2018-07-26T07:16:12.482Z,99689.17
2018-07-26T07:21:17.800Z,99682.70
2018-07-26T07:26:22.507Z,99678.86
2018-07-26T07:31:27.438Z,99684.83
2018-07-26T07:36:32.166Z,99685.50
2018-07-26T07:41:37.083Z,99685.94
2018-07-26T07:46:41.876Z,99680.53
2018-07-26T07:51:46.662Z,99676.92
2018-07-26T07:56:51.462Z,99676.03
2018-07-26T08:01:56.272Z,99672.30
2018-07-26T08:07:01.037Z,99664.22
2018-07-26T08:12:05.798Z,99662.12
2018-07-26T08:17:10.792Z,99662.53
2018-07-26T08:22:15.646Z,99666.73
2018-07-26T08:27:20.399Z,99672.05
2018-07-26T08:32:25.202Z,99671.64
2018-07-26T08:37:29.972Z,99667.63
2018-07-26T08:42:34.732Z,99660.13
2018-07-26T08:47:39.483Z,99656.63
2018-07-26T08:52:44.208Z,99652.50
2018-07-26T08:57:48.990Z,99648.26
2018-07-26T09:02:53.761Z,99649.80
2018-07-26T09:07:58.571Z,99648.16
2018-07-26T09:13:03.373Z,99647.23
2018-07-26T09:18:08.184Z,99641.20
2018-07-26T09:23:13.027Z,99640.61
2018-07-26T09:28:17.769Z,99636.52
2018-07-26T09:33:22.573Z,99630.88
2018-07-26T09:38:27.295Z,99629.03
2018-07-26T09:43:32.089Z,99619.20
2018-07-26T09:48:37.131Z,99626.04
2018-07-26T09:53:41.894Z,99628.09
2018-07-26T09:58:46.654Z,99615.95
2018-07-26T10:03:51.345Z,99608.81
2018-07-26T10:08:56.130Z,99609.58
2018-07-26T10:14:00.897Z,99608.18
2018-07-26T10:19:05.810Z,99601.68
2018-07-26T10:24:10.558Z,99592.41
2018-07-26T10:29:15.306Z,99595.19
2018-07-26T10:34:20.043Z,99589.64
2018-07-26T10:39:24.946Z,99591.31
2018-07-26T10:44:29.681Z,99581.75
2018-07-26T10:49:34.416Z,99569.97
2018-07-26T10:54:39.157Z,99582.44
2018-07-26T10:59:43.974Z,99580.05
2018-07-26T11:04:48.668Z,99574.42
2018-07-26T11:09:53.462Z,99568.86
2018-07-26T11:15:18.669Z,99564.95
2018-07-26T11:20:23.585Z,99567.22
2018-07-26T11:25:28.372Z,99556.74
2018-07-26T11:30:33.137Z,99553.29
2018-07-26T11:35:37.886Z,99546.66
2018-07-26T11:40:42.659Z,99552.66
2018-07-26T11:45:47.374Z,99542.66
2018-07-26T11:50:52.068Z,99529.41
2018-07-26T11:55:56.781Z,99526.20
2018-07-26T12:01:01.442Z,99513.47
2018-07-26T12:06:06.210Z,99513.77
2018-07-26T12:11:11.023Z,99514.95
2018-07-26T12:16:15.885Z,99511.28
2018-07-26T12:21:20.611Z,99496.69
2018-07-26T12:26:25.359Z,99498.59
2018-07-26T12:31:30.252Z,99493.45
2018-07-26T12:36:34.980Z,99490.33
2018-07-26T12:41:39.914Z,99478.48
2018-07-26T12:46:44.617Z,99466.48
2018-07-26T12:51:49.312Z,99472.10
2018-07-26T12:56:53.989Z,99453.50
2018-07-26T13:01:58.754Z,99452.25
2018-07-26T13:07:04.469Z,99442.12
2018-07-26T13:12:09.372Z,99434.73
2018-07-26T13:17:14.351Z,99435.88
2018-07-26T13:22:19.117Z,99426.34
2018-07-26T13:27:24.000Z,99424.05
2018-07-26T13:32:28.704Z,99422.39
2018-07-26T13:37:33.394Z,99412.48
2018-07-26T13:42:38.158Z,99417.03
2018-07-26T13:47:43.039Z,99420.66
2018-07-26T13:52:48.500Z,99403.23
2018-07-26T13:57:53.387Z,99404.78
2018-07-26T14:02:58.143Z,99397.75
2018-07-26T14:08:02.604Z,99394.69
2018-07-26T14:13:07.333Z,99399.17
2018-07-26T14:18:12.002Z,99400.41
2018-07-26T14:23:22.018Z,99392.63
2018-07-26T14:28:26.700Z,99380.66
2018-07-26T14:33:31.750Z,99366.70
2018-07-26T14:38:36.561Z,99364.00
2018-07-26T14:43:41.241Z,99365.81
2018-07-26T14:48:45.976Z,99376.52
2018-07-26T14:53:50.746Z,99363.98
2018-07-26T14:58:55.558Z,99362.66
2018-07-26T15:04:00.666Z,99361.98
2018-07-26T15:09:08.684Z,99370.89
2018-07-26T15:14:13.536Z,99362.28
2018-07-26T15:19:18.254Z,99354.56
2018-07-26T15:24:23.094Z,99359.79
2018-07-26T15:29:27.860Z,99358.95
2018-07-26T15:34:32.780Z,99357.23
2018-07-26T15:39:37.491Z,99353.03
2018-07-26T15:44:42.357Z,99353.36
2018-07-26T15:49:47.043Z,99350.98
2018-07-26T15:54:51.842Z,99348.94
2018-07-26T15:59:56.630Z,99345.87
2018-07-26T16:05:01.320Z,99344.65
2018-07-26T16:10:06.404Z,99350.50
2018-07-26T16:15:14.134Z,99344.94
2018-07-26T16:20:18.919Z,99345.41
2018-07-26T16:25:24.971Z,99342.64
2018-07-26T16:30:29.810Z,99336.72
2018-07-26T16:35:34.790Z,99348.06
2018-07-26T16:40:39.578Z,99346.16
2018-07-26T16:45:44.429Z,99344.95
2018-07-26T16:50:50.073Z,99344.06
2018-07-26T16:55:54.825Z,99342.55
2018-07-26T17:00:59.555Z,99341.06
2018-07-26T17:06:04.601Z,99339.58
2018-07-26T17:11:10.051Z,99339.42
2018-07-26T17:16:15.293Z,99341.81
2018-07-26T17:21:20.083Z,99345.69
2018-07-26T17:26:24.926Z,99341.02
2018-07-26T17:31:29.708Z,99343.63
2018-07-26T17:36:34.493Z,99342.50
2018-07-26T17:41:39.341Z,99343.83
2018-07-26T17:46:44.163Z,99343.84
2018-07-26T17:51:48.906Z,99351.98
2018-07-26T17:56:54.727Z,99355.73
2018-07-26T18:01:59.547Z,99351.78
2018-07-26T18:07:04.434Z,99355.70
2018-07-26T18:12:09.170Z,99357.44
2018-07-26T18:17:14.033Z,99361.22
2018-07-26T18:22:18.843Z,99376.56
2018-07-26T18:27:23.653Z,99378.94
2018-07-26T18:32:28.531Z,99376.37
2018-07-26T18:37:33.390Z,99376.81
2018-07-26T18:42:38.292Z,99374.98
2018-07-26T18:47:43.065Z,99392.05
2018-07-26T18:52:47.897Z,99393.77
2018-07-26T18:57:52.630Z,99402.20
2018-07-26T19:02:57.477Z,99405.51
2018-07-26T19:08:02.201Z,99422.91
2018-07-26T19:13:06.910Z,99421.77
2018-07-26T19:18:11.943Z,99431.95
2018-07-26T19:23:16.856Z,99436.47
2018-07-26T19:28:22.208Z,99434.30
2018-07-26T19:33:27.001Z,99449.50
2018-07-26T19:38:32.010Z,99455.02
2018-07-26T19:43:36.818Z,99459.91
2018-07-26T19:48:42.723Z,99460.94
2018-07-26T19:53:47.674Z,99464.73
2018-07-26T19:58:52.667Z,99469.40
2018-07-26T20:03:57.609Z,99468.73
2018-07-26T20:09:02.507Z,99470.74
2018-07-26T20:14:08.334Z,99472.45
2018-07-26T20:19:13.180Z,99477.80
2018-07-26T20:24:17.922Z,99480.81
2018-07-26T20:29:22.718Z,99482.40
2018-07-26T20:34:27.577Z,99492.95
2018-07-26T20:39:32.449Z,99496.19
2018-07-26T20:44:37.215Z,99505.06
2018-07-26T20:49:42.161Z,99513.39
2018-07-26T20:54:46.919Z,99522.80
2018-07-26T20:59:51.724Z,99525.59
2018-07-26T21:04:56.481Z,99528.91
2018-07-26T21:10:01.868Z,99534.63
2018-07-26T21:15:08.577Z,99539.82
2018-07-26T21:20:13.414Z,99525.81
2018-07-26T21:25:18.102Z,99533.45
2018-07-26T21:30:22.995Z,99537.13
2018-07-26T21:35:27.772Z,99543.53
2018-07-26T21:40:33.564Z,99546.73
2018-07-26T21:45:38.384Z,99543.56
2018-07-26T21:50:43.198Z,99548.46
2018-07-26T21:55:47.949Z,99541.30
2018-07-26T22:00:59.493Z,99536.48
2018-07-26T22:06:05.063Z,99544.14
2018-07-26T22:11:09.819Z,99543.17
2018-07-26T22:16:14.654Z,99538.72
2018-07-26T22:21:19.499Z,99542.41
2018-07-26T22:26:24.252Z,99543.02
2018-07-26T22:31:29.287Z,99538.95
2018-07-26T22:36:34.318Z,99546.17
2018-07-26T22:41:39.109Z,99544.82
2018-07-26T22:46:43.759Z,99552.13
2018-07-26T22:51:48.610Z,99548.31
2018-07-26T22:56:53.336Z,99542.94
2018-07-26T23:01:58.241Z,99534.27
2018-07-26T23:07:06.430Z,99536.82
2018-07-26T23:12:11.156Z,99542.92
2018-07-26T23:17:15.934Z,99547.38
2018-07-26T23:22:20.698Z,99540.83
2018-07-26T23:27:25.456Z,99534.33
2018-07-26T23:32:30.205Z,99535.71
2018-07-26T23:37:35.055Z,99541.23
2018-07-26T23:42:40.386Z,99533.53
2018-07-26T23:47:45.179Z,99537.64
2018-07-26T23:52:49.955Z,99537.94
2018-07-26T23:57:54.792Z,99533.95
